createdAt,value
2016-12-25T00:00:18.428Z,1006.89
2016-12-25T00:01:28.463Z,1006.92
2016-12-25T00:02:38.480Z,1007.05
2016-12-25T00:03:48.806Z,1006.89
2016-12-25T00:04:59.132Z,1006.84
2016-12-25T00:06:09.140Z,1006.86
2016-12-25T00:07:19.147Z,1006.92
2016-12-25T00:08:29.477Z,1006.92
2016-12-25T00:09:38.884Z,1006.87
2016-12-25T00:10:49.214Z,1006.8
2016-12-25T00:11:58.617Z,1006.79
2016-12-25T00:13:08.628Z,1006.84
2016-12-25T00:14:18.640Z,1006.9
2016-12-25T00:15:28.976Z,1006.79
2016-12-25T00:16:39.007Z,1006.75
2016-12-25T00:17:49.009Z,1006.89
2016-12-25T00:18:59.056Z,1006.79
2016-12-25T00:20:09.392Z,1006.99
2016-12-25T00:21:19.728Z,1006.96
2016-12-25T00:22:29.747Z,1006.77
2016-12-25T00:23:39.142Z,1006.84
2016-12-25T00:24:49.473Z,1006.83
2016-12-25T00:25:59.505Z,1006.78
2016-12-25T00:27:09.813Z,1006.81
2016-12-25T00:28:19.828Z,1006.77
2016-12-25T00:29:30.155Z,1006.92
2016-12-25T00:30:40.167Z,1006.99
2016-12-25T00:31:49.897Z,1006.99
2016-12-25T00:32:59.919Z,1006.96
2016-12-25T00:34:10.250Z,1007.07
2016-12-25T00:35:20.303Z,1006.8
2016-12-25T00:36:30.331Z,1006.82
2016-12-25T00:37:40.355Z,1006.83
2016-12-25T00:38:50.383Z,1006.89
2016-12-25T00:40:00.720Z,1006.86
2016-12-25T00:41:10.747Z,1006.8
2016-12-25T00:42:20.764Z,1006.92
2016-12-25T00:43:31.093Z,1006.85
2016-12-25T00:44:41.102Z,1006.79
2016-12-25T00:45:51.112Z,1006.81
2016-12-25T00:47:01.127Z,1006.86
2016-12-25T00:48:11.464Z,1006.89
2016-12-25T00:49:21.514Z,1006.91
2016-12-25T00:50:31.840Z,1006.74
2016-12-25T00:51:42.187Z,1006.87
2016-12-25T00:52:52.534Z,1006.94
2016-12-25T00:54:02.556Z,1006.88
2016-12-25T00:55:12.883Z,1006.94
2016-12-25T00:56:22.585Z,1006.9
2016-12-25T00:57:32.917Z,1006.92
2016-12-25T00:58:43.232Z,1006.9
2016-12-25T00:59:53.239Z,1006.89
2016-12-25T01:01:03.560Z,1006.93
2016-12-25T01:02:13.578Z,1006.89
2016-12-25T01:03:23.910Z,1006.94
2016-12-25T01:04:34.251Z,1006.91
2016-12-25T01:05:44.598Z,1006.85
2016-12-25T01:06:54.615Z,1006.84
2016-12-25T01:08:04.933Z,1006.89
2016-12-25T01:09:14.334Z,1006.9
2016-12-25T01:10:24.335Z,1006.83
2016-12-25T01:11:34.673Z,1006.81
2016-12-25T01:12:45.030Z,1006.85
2016-12-25T01:13:55.362Z,1006.79
2016-12-25T01:15:05.072Z,1006.87
2016-12-25T01:16:14.456Z,1006.84
2016-12-25T01:17:24.781Z,1006.87
2016-12-25T01:18:34.560Z,1006.87
2016-12-25T01:19:44.564Z,1006.82
2016-12-25T01:20:54.586Z,1006.82
2016-12-25T01:22:04.298Z,1006.84
2016-12-25T01:23:14.005Z,1006.84
2016-12-25T01:24:23.747Z,1006.74
2016-12-25T01:25:33.149Z,1006.73
2016-12-25T01:26:43.479Z,1006.78
2016-12-25T01:27:53.796Z,1006.76
2016-12-25T01:29:04.128Z,1006.84
2016-12-25T01:30:14.145Z,1006.8
2016-12-25T01:31:24.197Z,1006.91
2016-12-25T01:32:34.528Z,1006.82
2016-12-25T01:33:44.248Z,1006.85
2016-12-25T01:34:54.568Z,1006.81
2016-12-25T01:36:04.898Z,1006.88
2016-12-25T01:37:14.924Z,1006.84
2016-12-25T01:38:25.253Z,1006.89
2016-12-25T01:39:34.963Z,1006.89
2016-12-25T01:40:44.985Z,1006.81
2016-12-25T01:41:55.332Z,1006.83
2016-12-25T01:43:05.653Z,1006.81
2016-12-25T01:44:15.666Z,1006.84
2016-12-25T01:45:25.679Z,1006.68
2016-12-25T01:46:35.379Z,1006.76
2016-12-25T01:47:45.407Z,1006.71
2016-12-25T01:48:55.113Z,1006.69
2016-12-25T01:50:04.816Z,1006.69
2016-12-25T01:51:15.146Z,1006.74
2016-12-25T01:52:24.843Z,1006.65
2016-12-25T01:53:34.545Z,1006.58
2016-12-25T01:54:44.882Z,1006.54
2016-12-25T01:55:54.903Z,1006.61
2016-12-25T01:57:04.921Z,1006.52
2016-12-25T01:58:14.927Z,1006.49
2016-12-25T01:59:24.629Z,1006.59
2016-12-25T02:00:34.652Z,1006.59
2016-12-25T02:01:44.988Z,1006.5
2016-12-25T02:02:54.697Z,1006.55
2016-12-25T02:04:04.403Z,1006.51
2016-12-25T02:05:14.730Z,1006.52
2016-12-25T02:06:25.046Z,1006.41
2016-12-25T02:07:34.441Z,1006.44
2016-12-25T02:08:44.453Z,1006.41
2016-12-25T02:09:54.768Z,1006.51
2016-12-25T02:11:04.787Z,1006.5
2016-12-25T02:12:14.808Z,1006.58
2016-12-25T02:13:25.120Z,1006.57
2016-12-25T02:14:34.832Z,1006.66
2016-12-25T02:15:44.232Z,1006.58
2016-12-25T02:16:54.550Z,1006.6
2016-12-25T02:18:04.583Z,1006.57
2016-12-25T02:19:14.909Z,1006.73
2016-12-25T02:20:24.616Z,1006.6
2016-12-25T02:21:34.628Z,1006.68
2016-12-25T02:22:44.953Z,1006.65
2016-12-25T02:23:54.970Z,1006.63
2016-12-25T02:25:04.675Z,1006.74
2016-12-25T02:26:15.004Z,1006.64
2016-12-25T02:27:24.707Z,1006.56
2016-12-25T02:28:34.722Z,1006.63
2016-12-25T02:29:45.080Z,1006.57
2016-12-25T02:30:55.118Z,1006.69
2016-12-25T02:32:05.433Z,1006.71
2016-12-25T02:33:15.774Z,1006.64
2016-12-25T02:34:25.802Z,1006.51
2016-12-25T02:35:36.115Z,1006.47
2016-12-25T02:36:45.819Z,1006.57
2016-12-25T02:37:56.166Z,1006.64
2016-12-25T02:39:06.488Z,1006.48
2016-12-25T02:40:16.505Z,1006.61
2016-12-25T02:41:26.832Z,1006.42
2016-12-25T02:42:36.855Z,1006.52
2016-12-25T02:43:47.177Z,1006.31
2016-12-25T02:44:57.505Z,1006.57
2016-12-25T02:46:07.851Z,1006.43
2016-12-25T02:47:18.195Z,1006.42
2016-12-25T02:48:28.201Z,1006.37
2016-12-25T02:49:38.524Z,1006.4
2016-12-25T02:50:49.076Z,1006.37
2016-12-25T02:51:59.421Z,1006.41
2016-12-25T02:53:09.747Z,1006.63
2016-12-25T02:54:19.750Z,1006.39
2016-12-25T02:55:29.456Z,1006.42
2016-12-25T02:56:39.473Z,1006.41
2016-12-25T02:57:49.494Z,1006.32
2016-12-25T02:58:59.831Z,1006.4
2016-12-25T03:00:10.155Z,1006.36
2016-12-25T03:32:37.113Z,1006.47
2016-12-25T03:33:47.120Z,1006.56
2016-12-25T03:34:57.434Z,1006.47
2016-12-25T03:36:07.118Z,1006.44
2016-12-25T03:37:17.159Z,1006.46
2016-12-25T03:38:26.865Z,1006.45
2016-12-25T03:39:36.879Z,1006.46
2016-12-25T03:40:46.909Z,1006.51
2016-12-25T03:41:57.246Z,1006.43
2016-12-25T03:43:07.292Z,1006.39
2016-12-25T03:44:17.294Z,1006.43
2016-12-25T03:45:27.621Z,1006.47
2016-12-25T03:46:37.024Z,1006.35
2016-12-25T03:47:47.026Z,1006.39
2016-12-25T03:48:57.356Z,1006.44
2016-12-25T03:50:07.686Z,1006.48
2016-12-25T03:51:18.056Z,1006.46
2016-12-25T03:52:28.067Z,1006.44
2016-12-25T03:53:38.098Z,1006.52
2016-12-25T03:54:48.137Z,1006.5
2016-12-25T03:55:58.463Z,1006.45
2016-12-25T03:57:08.468Z,1006.42
2016-12-25T03:58:18.175Z,1006.46
2016-12-25T03:59:28.227Z,1006.48
2016-12-25T04:00:38.791Z,1006.53
2016-12-25T04:01:49.140Z,1006.56
2016-12-25T04:02:59.464Z,1006.46
2016-12-25T04:04:09.795Z,1006.57
2016-12-25T04:05:20.126Z,1006.58
2016-12-25T04:06:29.821Z,1006.55
2016-12-25T04:07:40.154Z,1006.56
2016-12-25T04:08:50.485Z,1006.62
2016-12-25T04:10:00.187Z,1006.69
2016-12-25T04:11:10.508Z,1006.57
2016-12-25T04:12:20.530Z,1006.59
2016-12-25T04:13:30.237Z,1006.67
2016-12-25T04:14:39.949Z,1006.54
2016-12-25T04:15:50.295Z,1006.67
2016-12-25T04:17:00.614Z,1006.58
2016-12-25T04:18:10.630Z,1006.57
2016-12-25T04:19:20.965Z,1006.6
2016-12-25T04:20:30.981Z,1006.6
2016-12-25T04:21:41.229Z,1006.56
2016-12-25T04:22:51.244Z,1006.58
2016-12-25T04:24:01.561Z,1006.61
2016-12-25T04:25:11.588Z,1006.62
2016-12-25T04:26:21.595Z,1006.61
2016-12-25T04:27:31.617Z,1006.74
2016-12-25T04:28:41.630Z,1006.6
2016-12-25T04:29:51.651Z,1006.58
2016-12-25T04:31:01.359Z,1006.65
2016-12-25T04:32:11.395Z,1006.56
2016-12-25T04:33:21.720Z,1006.59
2016-12-25T04:34:32.056Z,1006.47
2016-12-25T04:35:42.384Z,1006.42
2016-12-25T04:36:52.402Z,1006.46
2016-12-25T04:38:02.422Z,1006.41
2016-12-25T04:39:12.461Z,1006.45
2016-12-25T04:40:22.505Z,1006.36
2016-12-25T04:41:32.524Z,1006.33
2016-12-25T04:42:42.243Z,1006.37
2016-12-25T04:43:51.966Z,1006.4
2016-12-25T04:45:02.299Z,1006.35
2016-12-25T04:46:12.304Z,1006.45
2016-12-25T04:47:22.303Z,1006.42
2016-12-25T04:48:32.624Z,1006.56
2016-12-25T04:49:42.650Z,1006.53
2016-12-25T04:50:52.971Z,1006.5
2016-12-25T04:52:03.308Z,1006.5
2016-12-25T04:53:13.327Z,1006.49
2016-12-25T04:54:23.336Z,1006.5
2016-12-25T04:55:33.341Z,1006.61
2016-12-25T04:56:43.353Z,1006.46
2016-12-25T04:57:52.746Z,1006.6
2016-12-25T04:59:03.072Z,1006.49
2016-12-25T05:00:13.084Z,1006.51
2016-12-25T05:01:23.098Z,1006.44
2016-12-25T05:02:33.416Z,1006.42
2016-12-25T05:03:43.435Z,1006.35
2016-12-25T05:04:53.762Z,1006.43
2016-12-25T05:06:04.095Z,1006.29
2016-12-25T05:07:14.106Z,1006.28
2016-12-25T05:08:24.421Z,1006.27
2016-12-25T05:09:34.441Z,1006.3
2016-12-25T05:10:44.460Z,1006.25
2016-12-25T05:11:54.467Z,1006.39
2016-12-25T05:13:04.778Z,1006.31
2016-12-25T05:14:14.498Z,1006.3
2016-12-25T05:15:24.812Z,1006.32
2016-12-25T05:16:34.819Z,1006.34
2016-12-25T05:17:44.857Z,1006.34
2016-12-25T05:18:54.257Z,1006.47
2016-12-25T05:20:04.600Z,1006.24
2016-12-25T05:21:14.916Z,1006.37
2016-12-25T05:22:25.235Z,1006.33
2016-12-25T05:23:34.959Z,1006.37
2016-12-25T05:24:45.283Z,1006.36
2016-12-25T05:25:55.298Z,1006.37
2016-12-25T05:27:05.311Z,1006.32
2016-12-25T05:28:15.629Z,1006.4
2016-12-25T05:29:25.974Z,1006.29
2016-12-25T05:30:35.991Z,1006.3
2016-12-25T05:31:46.303Z,1006.33
2016-12-25T05:32:56.329Z,1006.4
2016-12-25T05:34:06.340Z,1006.31
2016-12-25T05:35:16.049Z,1006.31
2016-12-25T05:36:25.754Z,1006.3
2016-12-25T05:37:36.063Z,1006.37
2016-12-25T05:38:46.379Z,1006.35
2016-12-25T05:39:56.405Z,1006.3
2016-12-25T05:41:06.727Z,1006.23
2016-12-25T05:42:16.753Z,1006.34
2016-12-25T05:43:27.075Z,1006.19
2016-12-25T05:44:36.800Z,1006.23
2016-12-25T05:45:46.512Z,1006.23
2016-12-25T05:46:56.821Z,1006.33
2016-12-25T05:48:07.158Z,1006.31
2016-12-25T05:49:17.490Z,1006.46
2016-12-25T05:50:27.807Z,1006.21
2016-12-25T05:51:38.122Z,1006.33
2016-12-25T05:52:48.143Z,1006.34
2016-12-25T05:53:58.165Z,1006.38
2016-12-25T05:55:08.168Z,1006.23
2016-12-25T05:56:18.193Z,1006.33
2016-12-25T05:57:28.525Z,1006.29
2016-12-25T05:58:39.104Z,1006.34
2016-12-25T05:59:49.425Z,1006.18
2016-12-25T06:00:59.745Z,1006.24
2016-12-25T06:02:10.053Z,1006.26
2016-12-25T06:03:20.385Z,1006.33
2016-12-25T06:04:30.718Z,1006.26
2016-12-25T06:05:40.779Z,1006.41
2016-12-25T06:06:50.842Z,1006.42
2016-12-25T06:08:01.186Z,1006.41
2016-12-25T06:09:10.893Z,1006.39
2016-12-25T06:10:20.920Z,1006.44
2016-12-25T06:11:30.931Z,1006.31
2016-12-25T06:12:40.948Z,1006.35
2016-12-25T06:13:50.955Z,1006.33
2016-12-25T06:15:00.962Z,1006.29
2016-12-25T06:16:10.353Z,1006.25
2016-12-25T06:17:20.674Z,1006.31
2016-12-25T06:18:30.682Z,1006.32
2016-12-25T06:19:40.703Z,1006.21
2016-12-25T06:20:50.724Z,1006.11
2016-12-25T06:22:00.740Z,1006.11
2016-12-25T06:23:10.754Z,1006.13
2016-12-25T06:24:20.755Z,1006.06
2016-12-25T06:25:30.773Z,1006.09
2016-12-25T06:26:41.089Z,1006.09
2016-12-25T06:27:51.404Z,1005.92
2016-12-25T06:29:01.437Z,1006.02
2016-12-25T06:30:11.450Z,1005.88
2016-12-25T06:31:21.837Z,1006
2016-12-25T06:32:32.193Z,1005.98
2016-12-25T06:33:42.518Z,1006.14
2016-12-25T06:34:52.846Z,1006.19
2016-12-25T06:36:02.861Z,1006.2
2016-12-25T06:37:13.197Z,1006.24
2016-12-25T06:38:23.512Z,1006.12
2016-12-25T06:39:33.857Z,1006.07
2016-12-25T06:40:44.189Z,1006.18
2016-12-25T06:41:53.892Z,1006.2
2016-12-25T06:43:04.222Z,1006.03
2016-12-25T06:44:14.553Z,1006.15
2016-12-25T06:45:24.566Z,1006.09
2016-12-25T06:46:34.267Z,1006.18
2016-12-25T06:47:44.283Z,1006.1
2016-12-25T06:48:54.306Z,1006.09
2016-12-25T06:50:03.699Z,1006.3
2016-12-25T06:51:13.402Z,1006.19
2016-12-25T06:52:23.735Z,1006.33
2016-12-25T06:53:34.057Z,1006.13
2016-12-25T06:54:44.380Z,1006.12
2016-12-25T06:55:54.687Z,1006.19
2016-12-25T06:57:04.698Z,1005.94
2016-12-25T06:58:14.130Z,1006.18
2016-12-25T06:59:24.142Z,1006.08
2016-12-25T07:00:34.469Z,1006.11
2016-12-25T07:01:44.175Z,1006.16
2016-12-25T07:02:54.497Z,1006.17
2016-12-25T07:04:04.522Z,1006.16
2016-12-25T07:05:14.574Z,1006.15
2016-12-25T07:06:24.586Z,1006.21
2016-12-25T07:07:34.898Z,1006.21
2016-12-25T07:08:44.899Z,1006.24
2016-12-25T07:09:54.906Z,1006.36
2016-12-25T07:11:04.929Z,1006.19
2016-12-25T07:12:14.630Z,1006.3
2016-12-25T07:13:24.345Z,1006.13
2016-12-25T07:14:34.693Z,1006.21
2016-12-25T07:15:45.016Z,1006.18
2016-12-25T07:16:55.341Z,1006.26
2016-12-25T07:18:05.674Z,1006.41
2016-12-25T07:19:16.010Z,1006.28
2016-12-25T07:20:26.331Z,1006.35
2016-12-25T07:21:36.038Z,1006.31
2016-12-25T07:22:46.045Z,1006.25
2016-12-25T07:23:56.051Z,1006.23
2016-12-25T07:25:06.399Z,1006.22
2016-12-25T07:26:16.410Z,1006.23
2016-12-25T07:27:26.741Z,1006.25
2016-12-25T07:28:37.128Z,1006.16
2016-12-25T07:29:47.446Z,1006.14
2016-12-25T07:30:57.772Z,1006.37
2016-12-25T07:32:07.790Z,1006.21
2016-12-25T07:33:17.179Z,1006.2
2016-12-25T07:34:27.514Z,1006.19
2016-12-25T07:35:37.835Z,1006.33
2016-12-25T07:36:47.857Z,1006.2
2016-12-25T07:37:57.863Z,1006.21
2016-12-25T07:39:07.881Z,1006.36
2016-12-25T07:40:17.590Z,1006.35
2016-12-25T07:41:27.923Z,1006.3
2016-12-25T07:42:37.936Z,1006.26
2016-12-25T07:43:47.642Z,1006.32
2016-12-25T07:44:57.983Z,1006.36
2016-12-25T07:46:07.999Z,1006.32
2016-12-25T07:47:18.015Z,1006.31
2016-12-25T07:48:27.725Z,1006.31
2016-12-25T07:49:37.425Z,1006.39
2016-12-25T07:50:47.760Z,1006.36
2016-12-25T07:51:58.121Z,1006.38
2016-12-25T07:53:08.470Z,1006.54
2016-12-25T07:54:18.189Z,1006.36
2016-12-25T07:55:28.206Z,1006.41
2016-12-25T07:56:37.905Z,1006.48
2016-12-25T07:57:47.926Z,1006.36
2016-12-25T07:58:57.962Z,1006.41
2016-12-25T08:00:08.298Z,1006.48
2016-12-25T08:01:18.006Z,1006.49
2016-12-25T08:02:28.337Z,1006.46
2016-12-25T08:03:38.045Z,1006.47
2016-12-25T08:04:48.065Z,1006.5
2016-12-25T08:05:58.382Z,1006.45
2016-12-25T08:07:08.722Z,1006.43
2016-12-25T08:08:19.060Z,1006.39
2016-12-25T08:09:29.081Z,1006.4
2016-12-25T08:10:38.785Z,1006.46
2016-12-25T08:11:49.116Z,1006.44
2016-12-25T08:12:58.822Z,1006.34
2016-12-25T08:14:08.524Z,1006.39
2016-12-25T08:15:18.536Z,1006.52
2016-12-25T08:16:28.867Z,1006.51
2016-12-25T08:17:39.202Z,1006.53
2016-12-25T08:18:49.545Z,1006.47
2016-12-25T08:19:59.896Z,1006.46
2016-12-25T08:21:10.240Z,1006.5
2016-12-25T08:22:20.565Z,1006.54
2016-12-25T08:23:30.573Z,1006.49
2016-12-25T08:24:40.584Z,1006.59
2016-12-25T08:25:50.604Z,1006.69
2016-12-25T08:27:00.923Z,1006.65
2016-12-25T08:28:10.627Z,1006.49
2016-12-25T08:29:20.958Z,1006.66
2016-12-25T08:30:31.280Z,1006.64
2016-12-25T08:31:41.607Z,1006.65
2016-12-25T08:32:51.936Z,1006.58
2016-12-25T08:34:02.270Z,1006.57
2016-12-25T08:35:12.292Z,1006.6
2016-12-25T08:36:22.629Z,1006.73
2016-12-25T08:37:32.975Z,1006.63
2016-12-25T08:38:42.704Z,1006.61
2016-12-25T08:39:52.408Z,1006.57
2016-12-25T08:41:02.118Z,1006.64
2016-12-25T08:42:12.456Z,1006.71
2016-12-25T08:43:22.169Z,1006.6
2016-12-25T08:44:32.196Z,1006.64
2016-12-25T08:45:42.211Z,1006.63
2016-12-25T08:46:52.213Z,1006.67
2016-12-25T08:48:01.606Z,1006.65
2016-12-25T08:49:11.936Z,1006.68
2016-12-25T08:50:22.248Z,1006.68
2016-12-25T08:51:32.269Z,1006.66
2016-12-25T08:52:42.597Z,1006.73
2016-12-25T08:53:52.609Z,1006.72
2016-12-25T08:55:02.358Z,1006.65
2016-12-25T08:56:12.696Z,1006.73
2016-12-25T08:57:22.728Z,1006.74
2016-12-25T08:58:32.440Z,1006.76
2016-12-25T08:59:42.458Z,1006.56
2016-12-25T09:00:52.478Z,1006.68
2016-12-25T09:02:02.810Z,1006.76
2016-12-25T09:03:12.828Z,1006.61
2016-12-25T09:04:23.161Z,1006.57
2016-12-25T09:05:33.496Z,1006.69
2016-12-25T09:06:43.512Z,1006.52
2016-12-25T09:07:53.534Z,1006.67
2016-12-25T09:09:03.870Z,1006.58
2016-12-25T09:10:13.883Z,1006.57
2016-12-25T09:11:24.213Z,1006.6
2016-12-25T09:12:34.530Z,1006.66
2016-12-25T09:13:44.264Z,1006.58
2016-12-25T09:14:54.594Z,1006.54
2016-12-25T09:16:04.931Z,1006.56
2016-12-25T09:17:14.942Z,1006.6
2016-12-25T09:18:24.640Z,1006.64
2016-12-25T09:19:35.201Z,1006.55
2016-12-25T09:20:45.554Z,1006.64
2016-12-25T09:21:55.908Z,1006.54
2016-12-25T09:23:05.666Z,1006.63
2016-12-25T09:24:15.680Z,1006.55
2016-12-25T09:25:25.691Z,1006.59
2016-12-25T09:26:36.026Z,1006.56
2016-12-25T09:27:46.044Z,1006.51
2016-12-25T09:28:56.361Z,1006.66
2016-12-25T09:30:06.690Z,1006.49
2016-12-25T09:31:16.089Z,1006.49
2016-12-25T09:32:26.421Z,1006.54
2016-12-25T09:33:36.452Z,1006.57
2016-12-25T09:34:46.783Z,1006.43
2016-12-25T09:35:56.796Z,1006.44
2016-12-25T09:37:07.108Z,1006.47
2016-12-25T09:38:16.814Z,1006.39
2016-12-25T09:39:27.140Z,1006.41
2016-12-25T09:40:37.459Z,1006.52
2016-12-25T09:41:47.484Z,1006.48
2016-12-25T09:42:57.487Z,1006.42
2016-12-25T09:44:07.818Z,1006.48
2016-12-25T09:45:17.864Z,1006.34
2016-12-25T09:46:28.183Z,1006.36
2016-12-25T09:47:38.193Z,1006.41
2016-12-25T09:48:48.530Z,1006.28
2016-12-25T09:49:58.863Z,1006.47
2016-12-25T09:51:08.558Z,1006.4
2016-12-25T09:52:18.595Z,1006.44
2016-12-25T09:53:28.617Z,1006.4
2016-12-25T09:54:38.633Z,1006.42
2016-12-25T09:55:48.651Z,1006.51
2016-12-25T09:56:58.984Z,1006.47
2016-12-25T09:58:09.323Z,1006.33
2016-12-25T09:59:19.344Z,1006.24
2016-12-25T10:00:29.663Z,1006.15
2016-12-25T10:01:39.988Z,1006.24
2016-12-25T10:02:50.004Z,1006.16
2016-12-25T10:03:59.706Z,1006.12
2016-12-25T10:05:10.057Z,1006.1
2016-12-25T10:06:19.466Z,1006.12
2016-12-25T10:07:29.168Z,1006.14
2016-12-25T10:08:39.504Z,1006.02
2016-12-25T10:09:49.520Z,1006.11
2016-12-25T10:10:59.852Z,1006.02
2016-12-25T10:12:09.919Z,1005.92
2016-12-25T10:13:20.256Z,1005.94
2016-12-25T10:14:30.272Z,1005.96
2016-12-25T10:15:40.289Z,1005.96
2016-12-25T10:16:50.307Z,1005.88
2016-12-25T10:18:00.321Z,1005.96
2016-12-25T10:19:10.684Z,1005.85
2016-12-25T10:20:20.408Z,1005.98
2016-12-25T10:21:30.743Z,1005.76
2016-12-25T10:22:41.086Z,1005.81
2016-12-25T10:23:51.427Z,1005.74
2016-12-25T10:25:01.757Z,1005.83
2016-12-25T10:26:11.466Z,1005.72
2016-12-25T10:27:21.477Z,1005.79
2016-12-25T10:28:30.868Z,1005.79
2016-12-25T10:29:41.202Z,1005.71
2016-12-25T10:30:51.550Z,1005.71
2016-12-25T10:32:01.593Z,1005.64
2016-12-25T10:33:11.634Z,1005.64
2016-12-25T10:34:21.962Z,1005.72
2016-12-25T10:35:32.313Z,1005.72
2016-12-25T10:36:42.361Z,1005.78
2016-12-25T10:37:52.691Z,1005.73
2016-12-25T10:39:02.714Z,1005.71
2016-12-25T10:40:12.420Z,1005.82
2016-12-25T10:41:22.766Z,1005.85
2016-12-25T10:42:33.113Z,1005.98
2016-12-25T10:43:43.115Z,1006
2016-12-25T10:44:53.141Z,1005.97
2016-12-25T10:46:03.480Z,1006.06
2016-12-25T10:47:13.815Z,1005.8
2016-12-25T10:48:23.828Z,1005.99
2016-12-25T10:49:34.154Z,1005.94
2016-12-25T10:50:44.174Z,1005.9
2016-12-25T10:51:54.233Z,1006
2016-12-25T10:53:04.246Z,1005.93
2016-12-25T10:54:14.581Z,1005.83
2016-12-25T10:55:24.951Z,1005.84
2016-12-25T10:56:35.281Z,1005.85
2016-12-25T10:57:45.597Z,1005.86
2016-12-25T10:58:55.612Z,1005.83
2016-12-25T11:00:05.316Z,1005.77
2016-12-25T11:01:15.650Z,1005.81
2016-12-25T11:02:25.674Z,1005.72
2016-12-25T11:03:36.010Z,1005.66
2016-12-25T11:04:46.032Z,1005.67
2016-12-25T11:05:55.748Z,1005.65
2016-12-25T11:07:06.095Z,1005.67
2016-12-25T11:08:15.798Z,1005.56
2016-12-25T11:09:25.814Z,1005.62
2016-12-25T11:10:36.154Z,1005.6
2016-12-25T11:11:45.868Z,1005.55
2016-12-25T11:12:56.212Z,1005.53
2016-12-25T11:14:06.543Z,1005.5
2016-12-25T11:15:16.562Z,1005.5
2016-12-25T11:16:25.669Z,1005.44
2016-12-25T11:17:35.706Z,1005.39
2016-12-25T11:18:46.039Z,1005.57
2016-12-25T11:19:56.377Z,1005.59
2016-12-25T11:21:06.691Z,1005.55
2016-12-25T11:22:16.728Z,1005.75
2016-12-25T11:23:26.750Z,1005.73
2016-12-25T11:24:36.777Z,1005.51
2016-12-25T11:25:47.100Z,1005.52
2016-12-25T11:26:57.144Z,1005.56
2016-12-25T11:28:07.182Z,1005.53
2016-12-25T11:29:17.523Z,1005.6
2016-12-25T11:30:27.586Z,1005.45
2016-12-25T11:31:37.912Z,1005.57
2016-12-25T11:32:47.628Z,1005.33
2016-12-25T11:33:57.661Z,1005.55
2016-12-25T11:35:07.682Z,1005.4
2016-12-25T11:36:17.420Z,1005.54
2016-12-25T11:37:27.447Z,1005.38
2016-12-25T11:38:37.500Z,1005.46
2016-12-25T11:39:47.855Z,1005.55
2016-12-25T11:40:57.876Z,1005.44
2016-12-25T11:42:08.218Z,1005.5
2016-12-25T11:43:18.232Z,1005.53
2016-12-25T11:44:28.561Z,1005.46
2016-12-25T11:45:38.274Z,1005.53
2016-12-25T11:46:47.989Z,1005.5
2016-12-25T11:47:58.315Z,1005.51
2016-12-25T11:49:08.639Z,1005.46
2016-12-25T11:50:18.661Z,1005.51
2016-12-25T11:51:28.710Z,1005.49
2016-12-25T11:52:39.058Z,1005.57
2016-12-25T11:53:49.071Z,1005.54
2016-12-25T11:54:59.434Z,1005.44
2016-12-25T11:56:09.761Z,1005.47
2016-12-25T11:57:19.822Z,1005.47
2016-12-25T11:58:30.148Z,1005.43
2016-12-25T11:59:40.498Z,1005.5
2016-12-25T12:00:50.860Z,1005.4
2016-12-25T12:02:01.207Z,1005.43
2016-12-25T12:03:11.224Z,1005.42
2016-12-25T12:04:21.558Z,1005.42
2016-12-25T12:05:31.893Z,1005.28
2016-12-25T12:06:42.226Z,1005.37
2016-12-25T12:07:52.557Z,1005.37
2016-12-25T12:09:02.573Z,1005.33
2016-12-25T12:10:12.630Z,1005.31
2016-12-25T12:11:22.643Z,1005.35
2016-12-25T12:12:32.673Z,1005.24
2016-12-25T12:13:42.729Z,1005.26
2016-12-25T12:14:54.132Z,1005.35
2016-12-25T12:16:05.813Z,1005.23
2016-12-25T12:17:18.752Z,1005.19
2016-12-25T12:18:31.125Z,1005.21
2016-12-25T12:19:44.147Z,1005.24
2016-12-25T12:20:56.547Z,1005.34
2016-12-25T12:22:10.052Z,1005.3
2016-12-25T12:23:23.045Z,1005.32
2016-12-25T12:24:36.053Z,1005.25
2016-12-25T12:25:49.664Z,1005.25
2016-12-25T12:27:00.946Z,1005.27
2016-12-25T12:28:15.544Z,1005.31
2016-12-25T12:29:28.214Z,1005.29
2016-12-25T12:30:40.819Z,1005.27
2016-12-25T12:31:52.237Z,1005.41
2016-12-25T12:33:05.518Z,1005.33
2016-12-25T12:34:18.108Z,1005.38
2016-12-25T12:35:31.669Z,1005.44
2016-12-25T12:36:43.899Z,1005.41
2016-12-25T12:37:56.510Z,1005.39
2016-12-25T12:39:08.635Z,1005.33
2016-12-25T12:40:22.029Z,1005.42
2016-12-25T12:41:34.583Z,1005.43
2016-12-25T12:42:45.909Z,1005.37
2016-12-25T12:43:57.314Z,1005.39
2016-12-25T12:45:09.499Z,1005.37
2016-12-25T12:46:19.572Z,1005.35
2016-12-25T12:47:29.680Z,1005.25
2016-12-25T12:48:39.383Z,1005.27
2016-12-25T12:49:49.092Z,1005.28
2016-12-25T12:50:59.144Z,1005.27
2016-12-25T12:52:09.173Z,1005.26
2016-12-25T12:53:19.285Z,1005.28
2016-12-25T12:54:29.748Z,1005.21
2016-12-25T12:55:40.188Z,1005.22
2016-12-25T12:56:50.654Z,1005.16
2016-12-25T12:58:00.725Z,1005.14
2016-12-25T12:59:11.084Z,1005.15
2016-12-25T13:00:21.474Z,1005.14
2016-12-25T13:01:31.561Z,1005.18
2016-12-25T13:02:41.947Z,1005.1
2016-12-25T13:03:52.381Z,1005.13
2016-12-25T13:05:02.417Z,1005.07
2016-12-25T13:06:12.782Z,1005.08
2016-12-25T13:07:23.196Z,1005.09
2016-12-25T13:08:33.526Z,1005.07
2016-12-25T13:09:43.878Z,1005.11
2016-12-25T13:10:54.189Z,1005.1
2016-12-25T13:12:04.212Z,1005.07
2016-12-25T13:13:14.607Z,1005.09
2016-12-25T13:14:24.701Z,1005.07
2016-12-25T13:15:34.909Z,1005.02
2016-12-25T13:16:45.205Z,1005.03
2016-12-25T13:17:55.322Z,1004.91
2016-12-25T13:19:05.380Z,1004.92
2016-12-25T13:20:15.745Z,1004.95
2016-12-25T13:21:26.086Z,1004.96
2016-12-25T13:22:36.120Z,1004.92
2016-12-25T13:23:46.466Z,1004.91
2016-12-25T13:24:56.516Z,1004.91
2016-12-25T13:26:06.260Z,1004.93
2016-12-25T13:27:15.983Z,1004.99
2016-12-25T13:28:26.013Z,1004.93
2016-12-25T13:29:36.055Z,1004.97
2016-12-25T13:30:46.137Z,1004.92
2016-12-25T13:31:56.515Z,1004.93
2016-12-25T13:33:06.916Z,1004.94
2016-12-25T13:34:17.285Z,1004.91
2016-12-25T13:35:27.000Z,1004.92
2016-12-25T13:36:37.355Z,1004.92
2016-12-25T13:37:47.722Z,1004.91
2016-12-25T13:38:58.089Z,1004.89
2016-12-25T13:40:08.105Z,1004.99
2016-12-25T13:41:18.459Z,1004.93
2016-12-25T13:42:28.493Z,1005.01
2016-12-25T13:43:38.518Z,1005.04
2016-12-25T13:44:48.855Z,1005.01
2016-12-25T13:45:58.898Z,1005
2016-12-25T13:47:08.942Z,1005.04
2016-12-25T13:48:18.979Z,1004.97
2016-12-25T13:49:29.019Z,1004.93
2016-12-25T13:50:39.415Z,1004.91
2016-12-25T13:51:49.746Z,1004.98
2016-12-25T13:53:00.089Z,1004.95
2016-12-25T13:54:09.807Z,1004.89
2016-12-25T13:55:19.533Z,1004.84
2016-12-25T13:56:29.905Z,1004.82
2016-12-25T13:57:40.225Z,1004.83
2016-12-25T13:58:50.560Z,1004.84
2016-12-25T14:00:00.619Z,1004.77
2016-12-25T14:01:10.661Z,1004.74
2016-12-25T14:02:21.004Z,1004.74
2016-12-25T14:03:31.378Z,1004.83
2016-12-25T14:04:41.398Z,1004.77
2016-12-25T14:05:51.781Z,1004.85
2016-12-25T14:07:02.132Z,1004.88
2016-12-25T14:08:12.477Z,1004.77
2016-12-25T14:09:22.803Z,1004.96
2016-12-25T14:10:33.150Z,1004.95
2016-12-25T14:11:43.185Z,1004.89
2016-12-25T14:12:53.199Z,1004.92
2016-12-25T14:14:03.561Z,1004.91
2016-12-25T14:15:13.586Z,1004.91
2016-12-25T14:16:23.628Z,1004.89
2016-12-25T14:17:33.998Z,1004.96
2016-12-25T14:18:44.354Z,1004.92
2016-12-25T14:19:53.749Z,1004.93
2016-12-25T14:21:03.786Z,1004.95
2016-12-25T14:22:13.827Z,1004.93
2016-12-25T14:23:23.579Z,1004.89
2016-12-25T14:24:33.958Z,1004.73
2016-12-25T14:25:44.041Z,1004.71
2016-12-25T14:26:54.076Z,1004.71
2016-12-25T14:28:03.814Z,1004.73
2016-12-25T14:29:13.858Z,1004.71
2016-12-25T14:30:24.242Z,1004.71
2016-12-25T14:31:34.327Z,1004.64
2016-12-25T14:32:44.357Z,1004.8
2016-12-25T14:33:54.065Z,1004.75
2016-12-25T14:35:04.436Z,1004.77
2016-12-25T14:36:14.472Z,1004.78
2016-12-25T14:37:24.836Z,1004.77
2016-12-25T14:38:35.199Z,1004.85
2016-12-25T14:39:45.231Z,1004.87
2016-12-25T14:40:55.569Z,1004.87
2016-12-25T14:42:05.604Z,1004.84
2016-12-25T14:43:15.962Z,1004.84